sensor_id;sensor_type;location;lat;lon;timestamp;pressure;altitude;pressure_sealevel;temperature;humidity
39435;BME280;30098;51.880;-0.518;2022-08-01T00:01:15;100944.75;;;23.52;47.97
39435;BME280;30098;51.880;-0.518;2022-08-01T00:03:41;100945.53;;;23.52;47.99
39435;BME280;30098;51.880;-0.518;2022-08-01T00:06:06;100945.88;;;23.51;47.95
39435;BME280;30098;51.880;-0.518;2022-08-01T00:08:32;100945.06;;;23.50;47.87
39435;BME280;30098;51.880;-0.518;2022-08-01T00:10:57;100950.56;;;23.50;48.04
39435;BME280;30098;51.880;-0.518;2022-08-01T00:13:23;100949.28;;;23.47;48.03
39435;BME280;30098;51.880;-0.518;2022-08-01T00:15:48;100955.28;;;23.50;48.32
39435;BME280;30098;51.880;-0.518;2022-08-01T00:18:14;100898.94;;;23.08;48.18
39435;BME280;30098;51.880;-0.518;2022-08-01T00:20:39;100953.66;;;23.48;48.15
39435;BME280;30098;51.880;-0.518;2022-08-01T00:23:05;100952.03;;;23.47;48.01
39435;BME280;30098;51.880;-0.518;2022-08-01T00:25:30;100947.34;;;23.48;48.11
39435;BME280;30098;51.880;-0.518;2022-08-01T00:27:56;100943.78;;;23.47;47.82
39435;BME280;30098;51.880;-0.518;2022-08-01T00:30:21;100950.41;;;23.46;48.17
39435;BME280;30098;51.880;-0.518;2022-08-01T00:32:47;100953.16;;;23.46;47.91
39435;BME280;30098;51.880;-0.518;2022-08-01T00:35:12;100955.44;;;23.44;48.13
39435;BME280;30098;51.880;-0.518;2022-08-01T00:37:38;100954.31;;;23.45;47.90
39435;BME280;30098;51.880;-0.518;2022-08-01T00:40:05;100948.03;;;23.36;48.09
39435;BME280;30098;51.880;-0.518;2022-08-01T00:42:30;100957.06;;;23.45;48.01
39435;BME280;30098;51.880;-0.518;2022-08-01T00:44:56;100941.72;;;23.36;47.99
39435;BME280;30098;51.880;-0.518;2022-08-01T00:47:22;100953.84;;;23.43;48.02
39435;BME280;30098;51.880;-0.518;2022-08-01T00:49:47;100965.63;;;23.44;47.98
39435;BME280;30098;51.880;-0.518;2022-08-01T00:52:13;100962.09;;;23.43;48.25
39435;BME280;30098;51.880;-0.518;2022-08-01T00:54:39;100961.25;;;23.43;48.15
39435;BME280;30098;51.880;-0.518;2022-08-01T00:57:05;100965.97;;;23.42;48.10
39435;BME280;30098;51.880;-0.518;2022-08-01T00:59:30;100959.34;;;23.43;48.03
39435;BME280;30098;51.880;-0.518;2022-08-01T01:01:56;100961.25;;;23.43;48.04
39435;BME280;30098;51.880;-0.518;2022-08-01T01:04:22;100950.13;;;23.39;48.08
39435;BME280;30098;51.880;-0.518;2022-08-01T01:09:39;100959.53;;;23.38;48.09
39435;BME280;30098;51.880;-0.518;2022-08-01T01:12:30;100923.66;;;23.17;48.14
39435;BME280;30098;51.880;-0.518;2022-08-01T01:15:04;100967.09;;;23.41;47.87
39435;BME280;30098;51.880;-0.518;2022-08-01T01:17:37;100963.84;;;23.39;48.04
39435;BME280;30098;51.880;-0.518;2022-08-01T01:20:05;100962.72;;;23.40;48.14
39435;BME280;30098;51.880;-0.518;2022-08-01T01:29:13;100963.06;;;23.39;48.04
39435;BME280;30098;51.880;-0.518;2022-08-01T01:31:48;100918.31;;;23.03;47.90
39435;BME280;30098;51.880;-0.518;2022-08-01T01:34:17;100967.78;;;23.38;48.18
39435;BME280;30098;51.880;-0.518;2022-08-01T01:36:45;100927.34;;;23.12;47.95
39435;BME280;30098;51.880;-0.518;2022-08-01T01:39:12;100947.06;;;23.32;48.07
39435;BME280;30098;51.880;-0.518;2022-08-01T01:41:40;100940.63;;;23.28;47.88
39435;BME280;30098;51.880;-0.518;2022-08-01T01:44:07;100961.78;;;23.36;48.06
39435;BME280;30098;51.880;-0.518;2022-08-01T01:46:33;100941.91;;;23.30;48.05
39435;BME280;30098;51.880;-0.518;2022-08-01T01:49:01;100964.53;;;23.36;47.94
39435;BME280;30098;51.880;-0.518;2022-08-01T01:51:28;100941.75;;;23.27;47.96
39435;BME280;30098;51.880;-0.518;2022-08-01T01:53:55;100951.91;;;23.35;48.04
39435;BME280;30098;51.880;-0.518;2022-08-01T01:56:22;100945.63;;;23.35;48.04
39435;BME280;30098;51.880;-0.518;2022-08-01T01:58:52;100951.13;;;23.35;47.87
39435;BME280;30098;51.880;-0.518;2022-08-01T02:01:21;100950.28;;;23.34;47.99
39435;BME280;30098;51.880;-0.518;2022-08-01T02:03:48;100949.50;;;23.34;48.00
39435;BME280;30098;51.880;-0.518;2022-08-01T02:06:15;100948.69;;;23.33;47.93
39435;BME280;30098;51.880;-0.518;2022-08-01T02:08:42;100947.88;;;23.33;48.01
39435;BME280;30098;51.880;-0.518;2022-08-01T02:11:09;100938.00;;;23.31;48.04
39435;BME280;30098;51.880;-0.518;2022-08-01T02:13:48;100944.00;;;23.34;48.01
39435;BME280;30098;51.880;-0.518;2022-08-01T02:16:16;100942.38;;;23.33;47.90
39435;BME280;30098;51.880;-0.518;2022-08-01T02:18:42;100938.81;;;23.32;47.93
39435;BME280;30098;51.880;-0.518;2022-08-01T02:21:09;100944.66;;;23.30;48.06
39435;BME280;30098;51.880;-0.518;2022-08-01T02:23:38;100944.31;;;23.32;48.03
39435;BME280;30098;51.880;-0.518;2022-08-01T02:26:07;100946.25;;;23.31;48.07
39435;BME280;30098;51.880;-0.518;2022-08-01T02:28:43;100938.81;;;23.32;47.96
39435;BME280;30098;51.880;-0.518;2022-08-01T02:31:13;100934.47;;;23.31;47.81
39435;BME280;30098;51.880;-0.518;2022-08-01T02:33:45;100931.72;;;23.31;47.93
39435;BME280;30098;51.880;-0.518;2022-08-01T02:36:12;100922.66;;;23.30;47.95
39435;BME280;30098;51.880;-0.518;2022-08-01T02:38:42;100914.41;;;23.30;48.06
39435;BME280;30098;51.880;-0.518;2022-08-01T02:41:11;100916.38;;;23.30;47.84
39435;BME280;30098;51.880;-0.518;2022-08-01T02:43:42;100924.13;;;23.28;47.85
39435;BME280;30098;51.880;-0.518;2022-08-01T02:46:20;100917.53;;;23.20;47.93
39435;BME280;30098;51.880;-0.518;2022-08-01T02:48:47;100933.97;;;23.29;47.99
39435;BME280;30098;51.880;-0.518;2022-08-01T02:51:16;100941.41;;;23.28;47.97
39435;BME280;30098;51.880;-0.518;2022-08-01T02:53:42;100937.88;;;23.28;47.98
39435;BME280;30098;51.880;-0.518;2022-08-01T02:56:10;100938.66;;;23.28;48.07
39435;BME280;30098;51.880;-0.518;2022-08-01T02:58:37;100943.38;;;23.28;48.04
39435;BME280;30098;51.880;-0.518;2022-08-01T03:01:05;100928.34;;;23.16;48.14
39435;BME280;30098;51.880;-0.518;2022-08-01T03:03:33;100934.63;;;23.26;47.91
39435;BME280;30098;51.880;-0.518;2022-08-01T03:06:01;100939.00;;;23.27;47.98
39435;BME280;30098;51.880;-0.518;2022-08-01T03:08:29;100936.25;;;23.27;48.00
39435;BME280;30098;51.880;-0.518;2022-08-01T03:10:56;100933.84;;;23.25;48.07
39435;BME280;30098;51.880;-0.518;2022-08-01T03:13:25;100944.34;;;23.23;48.05
39435;BME280;30098;51.880;-0.518;2022-08-01T03:15:53;100951.47;;;23.24;48.05
39435;BME280;30098;51.880;-0.518;2022-08-01T03:18:21;100951.13;;;23.26;48.04
39435;BME280;30098;51.880;-0.518;2022-08-01T03:20:49;100949.50;;;23.25;47.90
39435;BME280;30098;51.880;-0.518;2022-08-01T03:23:16;100939.66;;;23.24;47.85
39435;BME280;30098;51.880;-0.518;2022-08-01T03:25:44;100933.00;;;23.25;47.91
39435;BME280;30098;51.880;-0.518;2022-08-01T03:28:13;100932.22;;;23.24;48.13
39435;BME280;30098;51.880;-0.518;2022-08-01T03:30:40;100934.47;;;23.22;47.98
39435;BME280;30098;51.880;-0.518;2022-08-01T03:33:07;100924.94;;;23.20;47.99
39435;BME280;30098;51.880;-0.518;2022-08-01T03:35:37;100938.06;;;23.23;47.88
39435;BME280;30098;51.880;-0.518;2022-08-01T03:38:05;100938.06;;;23.23;47.99
39435;BME280;30098;51.880;-0.518;2022-08-01T03:40:39;100939.19;;;23.22;47.97
39435;BME280;30098;51.880;-0.518;2022-08-01T03:43:10;100946.28;;;23.23;47.95
39435;BME280;30098;51.880;-0.518;2022-08-01T03:45:40;100941.09;;;23.21;47.90
39435;BME280;30098;51.880;-0.518;2022-08-01T03:48:12;100952.91;;;23.22;47.91
39435;BME280;30098;51.880;-0.518;2022-08-01T03:50:41;100937.22;;;23.22;47.87
39435;BME280;30098;51.880;-0.518;2022-08-01T03:53:08;100929.31;;;23.21;47.93
39435;BME280;30098;51.880;-0.518;2022-08-01T03:55:36;100895.72;;;22.89;48.04
39435;BME280;30098;51.880;-0.518;2022-08-01T03:58:04;100935.44;;;23.18;47.83
39435;BME280;30098;51.880;-0.518;2022-08-01T04:00:30;100932.06;;;23.21;48.19
39435;BME280;30098;51.880;-0.518;2022-08-01T04:02:56;100936.88;;;23.15;48.02
39435;BME280;30098;51.880;-0.518;2022-08-01T04:05:22;100945.81;;;23.21;47.94
39435;BME280;30098;51.880;-0.518;2022-08-01T04:07:49;100943.38;;;23.19;47.86
39435;BME280;30098;51.880;-0.518;2022-08-01T04:10:22;100933.19;;;23.20;47.88
39435;BME280;30098;51.880;-0.518;2022-08-01T04:12:48;100926.91;;;23.19;47.91
39435;BME280;30098;51.880;-0.518;2022-08-01T04:15:13;100935.94;;;23.20;47.81
39435;BME280;30098;51.880;-0.518;2022-08-01T04:17:39;100940.94;;;23.18;47.70
39435;BME280;30098;51.880;-0.518;2022-08-01T04:20:05;100939.81;;;23.19;47.92
39435;BME280;30098;51.880;-0.518;2022-08-01T04:22:31;100948.06;;;23.19;47.91
39435;BME280;30098;51.880;-0.518;2022-08-01T04:24:58;100940.94;;;23.18;47.88
39435;BME280;30098;51.880;-0.518;2022-08-01T04:27:31;100938.19;;;23.18;47.92
39435;BME280;30098;51.880;-0.518;2022-08-01T04:29:59;100927.22;;;23.18;47.88
39435;BME280;30098;51.880;-0.518;2022-08-01T04:32:27;100935.44;;;23.18;47.74
39435;BME280;30098;51.880;-0.518;2022-08-01T04:34:54;100923.66;;;23.08;47.60
39435;BME280;30098;51.880;-0.518;2022-08-01T04:37:22;100937.72;;;23.15;47.88
39435;BME280;30098;51.880;-0.518;2022-08-01T04:39:50;100935.75;;;23.16;47.98
39435;BME280;30098;51.880;-0.518;2022-08-01T04:42:17;100933.84;;;23.16;48.01
39435;BME280;30098;51.880;-0.518;2022-08-01T04:44:44;100932.22;;;23.15;48.00
39435;BME280;30098;51.880;-0.518;2022-08-01T04:47:11;100938.50;;;23.16;47.81
39435;BME280;30098;51.880;-0.518;2022-08-01T04:49:37;100937.72;;;23.15;47.99
39435;BME280;30098;51.880;-0.518;2022-08-01T04:52:03;100926.72;;;23.15;47.70
39435;BME280;30098;51.880;-0.518;2022-08-01T04:54:34;100928.97;;;23.13;47.76
39435;BME280;30098;51.880;-0.518;2022-08-01T04:57:03;100920.91;;;23.08;47.96
39435;BME280;30098;51.880;-0.518;2022-08-01T04:59:30;100931.09;;;23.08;47.97
39435;BME280;30098;51.880;-0.518;2022-08-01T05:02:06;100940.75;;;23.14;47.96
39435;BME280;30098;51.880;-0.518;2022-08-01T05:04:32;100949.00;;;23.14;47.92
39435;BME280;30098;51.880;-0.518;2022-08-01T05:06:58;100947.22;;;23.09;47.98
39435;BME280;30098;51.880;-0.518;2022-08-01T05:09:23;100955.31;;;23.14;47.99
39435;BME280;30098;51.880;-0.518;2022-08-01T05:11:49;100960.00;;;23.14;47.95
39435;BME280;30098;51.880;-0.518;2022-08-01T05:14:14;100951.28;;;23.03;47.85
39435;BME280;30098;51.880;-0.518;2022-08-01T05:16:40;100964.69;;;23.13;47.87
39435;BME280;30098;51.880;-0.518;2022-08-01T05:19:07;100951.63;;;23.02;48.02
39435;BME280;30098;51.880;-0.518;2022-08-01T05:21:34;100970.53;;;23.12;47.98
39435;BME280;30098;51.880;-0.518;2022-08-01T05:23:59;100956.47;;;23.05;47.86
39435;BME280;30098;51.880;-0.518;2022-08-01T05:26:25;100966.16;;;23.11;47.87
39435;BME280;30098;51.880;-0.518;2022-08-01T05:28:50;100967.78;;;23.12;47.80
39435;BME280;30098;51.880;-0.518;2022-08-01T05:31:16;100959.53;;;23.12;47.74
39435;BME280;30098;51.880;-0.518;2022-08-01T05:33:41;100893.16;;;22.75;47.82
39435;BME280;30098;51.880;-0.518;2022-08-01T05:36:07;100953.22;;;23.11;47.90
39435;BME280;30098;51.880;-0.518;2022-08-01T05:38:32;100958.56;;;23.08;47.78
39435;BME280;30098;51.880;-0.518;2022-08-01T05:40:58;100963.41;;;23.11;47.97
39435;BME280;30098;51.880;-0.518;2022-08-01T05:43:23;100960.66;;;23.11;47.93
39435;BME280;30098;51.880;-0.518;2022-08-01T05:45:49;100957.09;;;23.10;47.86
39435;BME280;30098;51.880;-0.518;2022-08-01T05:48:14;100965.34;;;23.10;47.86
39435;BME280;30098;51.880;-0.518;2022-08-01T05:50:40;100962.94;;;23.09;47.88
39435;BME280;30098;51.880;-0.518;2022-08-01T05:53:05;100963.72;;;23.09;48.03
39435;BME280;30098;51.880;-0.518;2022-08-01T05:55:31;100960.97;;;23.09;47.77
39435;BME280;30098;51.880;-0.518;2022-08-01T05:57:56;100960.97;;;23.09;47.97
39435;BME280;30098;51.880;-0.518;2022-08-01T06:00:22;100932.56;;;22.96;47.73
39435;BME280;30098;51.880;-0.518;2022-08-01T06:02:47;100954.69;;;23.09;47.96
39435;BME280;30098;51.880;-0.518;2022-08-01T06:05:13;100954.69;;;23.09;47.78
39435;BME280;30098;51.880;-0.518;2022-08-01T06:07:38;100964.88;;;23.08;47.79
39435;BME280;30098;51.880;-0.518;2022-08-01T06:10:05;100957.13;;;23.02;47.80
39435;BME280;30098;51.880;-0.518;2022-08-01T06:12:35;100963.25;;;23.07;47.79
39435;BME280;30098;51.880;-0.518;2022-08-01T06:15:00;100975.06;;;23.08;47.78
39435;BME280;30098;51.880;-0.518;2022-08-01T06:17:26;100960.50;;;23.07;47.78
39435;BME280;30098;51.880;-0.518;2022-08-01T06:19:51;100953.72;;;23.05;47.92
39435;BME280;30098;51.880;-0.518;2022-08-01T06:22:17;100969.22;;;23.09;47.77
39435;BME280;30098;51.880;-0.518;2022-08-01T06:24:42;100975.53;;;23.10;47.75
39435;BME280;30098;51.880;-0.518;2022-08-01T06:27:08;100972.47;;;23.11;47.69
39435;BME280;30098;51.880;-0.518;2022-08-01T06:29:33;100968.59;;;23.12;47.74
39435;BME280;30098;51.880;-0.518;2022-08-01T06:32:00;100972.63;;;23.15;47.68
39435;BME280;30098;51.880;-0.518;2022-08-01T06:34:25;100973.13;;;23.17;47.75
39435;BME280;30098;51.880;-0.518;2022-08-01T06:36:51;100969.25;;;23.18;47.77
39435;BME280;30098;51.880;-0.518;2022-08-01T06:39:17;100971.34;;;23.21;47.53
39435;BME280;30098;51.880;-0.518;2022-08-01T06:41:42;100978.44;;;23.22;47.68
39435;BME280;30098;51.880;-0.518;2022-08-01T06:44:11;100980.91;;;23.24;47.39
39435;BME280;30098;51.880;-0.518;2022-08-01T06:46:37;100980.56;;;23.25;47.51
39435;BME280;30098;51.880;-0.518;2022-08-01T06:49:02;100989.28;;;23.27;47.58
39435;BME280;30098;51.880;-0.518;2022-08-01T06:51:28;100993.34;;;23.30;47.54
39435;BME280;30098;51.880;-0.518;2022-08-01T06:53:53;100994.94;;;23.31;47.46
39435;BME280;30098;51.880;-0.518;2022-08-01T06:56:19;100997.69;;;23.31;47.62
39435;BME280;30098;51.880;-0.518;2022-08-01T06:58:45;100949.66;;;23.02;47.42
39435;BME280;30098;51.880;-0.518;2022-08-01T07:01:11;100999.28;;;23.32;47.36
39435;BME280;30098;51.880;-0.518;2022-08-01T07:03:36;101003.03;;;23.36;47.41
39435;BME280;30098;51.880;-0.518;2022-08-01T07:06:03;100998.31;;;23.37;47.38
39435;BME280;30098;51.880;-0.518;2022-08-01T07:08:28;100997.03;;;23.34;47.31
39435;BME280;30098;51.880;-0.518;2022-08-01T07:10:54;101005.94;;;23.40;47.25
39435;BME280;30098;51.880;-0.518;2022-08-01T07:13:21;101002.03;;;23.41;47.33
39435;BME280;30098;51.880;-0.518;2022-08-01T07:15:50;101004.47;;;23.42;47.15
39435;BME280;30098;51.880;-0.518;2022-08-01T07:18:16;101000.56;;;23.43;47.19
39435;BME280;30098;51.880;-0.518;2022-08-01T07:20:42;100987.16;;;23.33;47.36
39435;BME280;30098;51.880;-0.518;2022-08-01T07:23:08;100999.28;;;23.41;47.01
39435;BME280;30098;51.880;-0.518;2022-08-01T07:25:34;101004.59;;;23.46;47.05
39435;BME280;30098;51.880;-0.518;2022-08-01T07:27:59;101001.06;;;23.45;47.06
39435;BME280;30098;51.880;-0.518;2022-08-01T07:30:24;100995.22;;;23.47;47.05
39435;BME280;30098;51.880;-0.518;2022-08-01T07:32:50;101004.75;;;23.50;46.94
39435;BME280;30098;51.880;-0.518;2022-08-01T07:35:16;101002.81;;;23.50;46.90
39435;BME280;30098;51.880;-0.518;2022-08-01T07:37:41;101002.00;;;23.50;47.12
39435;BME280;30098;51.880;-0.518;2022-08-01T07:40:07;101011.88;;;23.51;47.07
39435;BME280;30098;51.880;-0.518;2022-08-01T07:42:33;100969.06;;;23.23;47.16
39435;BME280;30098;51.880;-0.518;2022-08-01T07:44:59;101013.97;;;23.54;47.10
39435;BME280;30098;51.880;-0.518;2022-08-01T07:47:25;101017.53;;;23.54;47.25
39435;BME280;30098;51.880;-0.518;2022-08-01T07:49:51;101021.41;;;23.53;46.76
39435;BME280;30098;51.880;-0.518;2022-08-01T07:52:16;101020.94;;;23.51;45.37
39435;BME280;30098;51.880;-0.518;2022-08-01T07:54:42;101019.31;;;23.50;45.22
39435;BME280;30098;51.880;-0.518;2022-08-01T07:57:07;101024.66;;;23.46;44.40
39435;BME280;30098;51.880;-0.518;2022-08-01T07:59:33;101021.44;;;23.44;43.25
39435;BME280;30098;51.880;-0.518;2022-08-01T08:01:59;101020.94;;;23.42;42.74
39435;BME280;30098;51.880;-0.518;2022-08-01T08:04:25;101013.34;;;23.39;42.63
39435;BME280;30098;51.880;-0.518;2022-08-01T08:06:50;101014.81;;;23.37;42.43
39435;BME280;30098;51.880;-0.518;2022-08-01T08:09:17;101018.06;;;23.30;42.33
39435;BME280;30098;51.880;-0.518;2022-08-01T08:11:43;101018.53;;;23.32;42.78
39435;BME280;30098;51.880;-0.518;2022-08-01T08:14:09;101017.09;;;23.26;41.96
39435;BME280;30098;51.880;-0.518;2022-08-01T08:16:35;100962.47;;;22.89;42.08
39435;BME280;30098;51.880;-0.518;2022-08-01T08:19:00;101014.53;;;23.21;41.84
39435;BME280;30098;51.880;-0.518;2022-08-01T08:21:26;101021.16;;;23.20;41.75
39435;BME280;30098;51.880;-0.518;2022-08-01T08:23:52;101024.22;;;23.18;42.11
39435;BME280;30098;51.880;-0.518;2022-08-01T08:26:36;101030.03;;;23.16;42.09
39435;BME280;30098;51.880;-0.518;2022-08-01T08:29:03;101029.03;;;23.12;41.96
39435;BME280;30098;51.880;-0.518;2022-08-01T08:31:28;101031.00;;;23.12;42.29
39435;BME280;30098;51.880;-0.518;2022-08-01T08:33:54;101010.63;;;22.95;42.15
39435;BME280;30098;51.880;-0.518;2022-08-01T08:36:20;101036.34;;;23.08;42.38
39435;BME280;30098;51.880;-0.518;2022-08-01T08:38:45;101028.38;;;23.07;42.96
39435;BME280;30098;51.880;-0.518;2022-08-01T08:41:11;101029.06;;;23.04;42.64
39435;BME280;30098;51.880;-0.518;2022-08-01T08:43:37;101021.78;;;22.99;42.38
39435;BME280;30098;51.880;-0.518;2022-08-01T08:46:03;100959.06;;;22.66;42.32
39435;BME280;30098;51.880;-0.518;2022-08-01T08:48:30;101010.94;;;23.03;42.61
39435;BME280;30098;51.880;-0.518;2022-08-01T08:50:57;101010.94;;;23.03;42.68
39435;BME280;30098;51.880;-0.518;2022-08-01T08:53:23;101011.28;;;23.01;42.31
39435;BME280;30098;51.880;-0.518;2022-08-01T08:55:49;101001.41;;;23.00;42.70
39435;BME280;30098;51.880;-0.518;2022-08-01T08:58:17;101004.16;;;23.00;42.90
39435;BME280;30098;51.880;-0.518;2022-08-01T09:00:43;101011.75;;;23.03;42.90
39435;BME280;30098;51.880;-0.518;2022-08-01T09:03:09;101011.44;;;23.05;42.98
39435;BME280;30098;51.880;-0.518;2022-08-01T09:05:34;101009.00;;;23.03;42.24
39435;BME280;30098;51.880;-0.518;2022-08-01T09:08:00;101015.47;;;23.07;42.35
39435;BME280;30098;51.880;-0.518;2022-08-01T09:10:25;101014.34;;;23.08;42.49
39435;BME280;30098;51.880;-0.518;2022-08-01T09:13:12;101022.59;;;23.08;42.60
39435;BME280;30098;51.880;-0.518;2022-08-01T09:15:43;101024.84;;;23.06;42.57
39435;BME280;30098;51.880;-0.518;2022-08-01T09:18:32;101017.41;;;23.07;42.21
39435;BME280;30098;51.880;-0.518;2022-08-01T09:21:18;101027.25;;;23.08;43.05
39435;BME280;30098;51.880;-0.518;2022-08-01T09:23:49;101028.56;;;23.10;43.09
39435;BME280;30098;51.880;-0.518;2022-08-01T09:26:17;101026.28;;;23.12;43.60
39435;BME280;30098;51.880;-0.518;2022-08-01T09:28:44;101020.78;;;23.12;43.11
39435;BME280;30098;51.880;-0.518;2022-08-01T09:31:15;101019.03;;;23.16;43.18
39435;BME280;30098;51.880;-0.518;2022-08-01T09:34:00;101015.66;;;23.20;43.00
39435;BME280;30098;51.880;-0.518;2022-08-01T09:39:18;101013.53;;;23.25;42.34
39435;BME280;30098;51.880;-0.518;2022-08-01T09:41:44;101017.59;;;23.28;42.91
39435;BME280;30098;51.880;-0.518;2022-08-01T09:44:10;101022.09;;;23.33;42.92
39435;BME280;30098;51.880;-0.518;2022-08-01T09:46:35;101019.50;;;23.36;42.68
39435;BME280;30098;51.880;-0.518;2022-08-01T09:49:05;100998.81;;;23.30;42.83
39435;BME280;30098;51.880;-0.518;2022-08-01T09:51:37;101024.19;;;23.44;42.66
39435;BME280;30098;51.880;-0.518;2022-08-01T09:54:05;101001.41;;;23.35;42.36
39435;BME280;30098;51.880;-0.518;2022-08-01T09:56:42;101004.78;;;23.41;42.59
39435;BME280;30098;51.880;-0.518;2022-08-01T09:59:08;101019.16;;;23.55;42.88
39435;BME280;30098;51.880;-0.518;2022-08-01T10:01:48;101017.00;;;23.61;42.77
39435;BME280;30098;51.880;-0.518;2022-08-01T10:04:20;101016.03;;;23.66;43.14
39435;BME280;30098;51.880;-0.518;2022-08-01T10:06:48;100998.59;;;23.61;42.86
39435;BME280;30098;51.880;-0.518;2022-08-01T10:09:28;101003.88;;;23.75;42.69
39435;BME280;30098;51.880;-0.518;2022-08-01T10:11:55;101000.16;;;23.71;42.60
39435;BME280;30098;51.880;-0.518;2022-08-01T10:14:22;101008.88;;;23.82;42.43
39435;BME280;30098;51.880;-0.518;2022-08-01T10:16:51;101013.72;;;23.85;42.36
39435;BME280;30098;51.880;-0.518;2022-08-01T10:19:18;101019.38;;;23.89;42.55
39435;BME280;30098;51.880;-0.518;2022-08-01T10:21:46;101011.91;;;23.89;42.60
39435;BME280;30098;51.880;-0.518;2022-08-01T10:24:15;100992.50;;;23.86;42.69
39435;BME280;30098;51.880;-0.518;2022-08-01T10:26:43;101008.00;;;23.99;42.29
39435;BME280;30098;51.880;-0.518;2022-08-01T10:29:09;101012.03;;;24.02;42.47
39435;BME280;30098;51.880;-0.518;2022-08-01T10:31:36;101003.78;;;24.02;42.42
39435;BME280;30098;51.880;-0.518;2022-08-01T10:34:02;100995.81;;;24.09;42.43
39435;BME280;30098;51.880;-0.518;2022-08-01T10:36:29;100990.47;;;24.13;42.38
39435;BME280;30098;51.880;-0.518;2022-08-01T10:38:57;100981.13;;;24.05;42.27
39435;BME280;30098;51.880;-0.518;2022-08-01T10:41:24;101002.09;;;24.18;42.25
39435;BME280;30098;51.880;-0.518;2022-08-01T10:43:50;100996.25;;;24.20;42.36
39435;BME280;30098;51.880;-0.518;2022-08-01T10:46:19;100995.94;;;24.21;42.16
39435;BME280;30098;51.880;-0.518;2022-08-01T10:48:51;100993.63;;;24.23;41.98
39435;BME280;30098;51.880;-0.518;2022-08-01T10:51:20;100956.50;;;24.08;41.96
39435;BME280;30098;51.880;-0.518;2022-08-01T10:53:53;100984.72;;;24.26;41.78
39435;BME280;30098;51.880;-0.518;2022-08-01T10:56:20;100985.22;;;24.29;42.26
39435;BME280;30098;51.880;-0.518;2022-08-01T10:58:47;100987.63;;;24.30;42.26
39435;BME280;30098;51.880;-0.518;2022-08-01T11:03:38;100992.13;;;24.35;41.96
39435;BME280;30098;51.880;-0.518;2022-08-01T11:06:04;100997.78;;;24.38;42.42
39435;BME280;30098;51.880;-0.518;2022-08-01T11:08:30;100994.34;;;24.41;42.39
39435;BME280;30098;51.880;-0.518;2022-08-01T11:11:01;100941.59;;;24.09;42.19
39435;BME280;30098;51.880;-0.518;2022-08-01T11:16:28;100993.47;;;24.50;42.11
39435;BME280;30098;51.880;-0.518;2022-08-01T11:18:54;100976.53;;;24.39;42.24
39435;BME280;30098;51.880;-0.518;2022-08-01T11:21:19;100999.94;;;24.54;42.10
39435;BME280;30098;51.880;-0.518;2022-08-01T11:23:50;100985.03;;;24.55;42.22
39435;BME280;30098;51.880;-0.518;2022-08-01T11:26:20;100979.97;;;24.57;42.04
39435;BME280;30098;51.880;-0.518;2022-08-01T11:29:16;100967.81;;;24.58;41.97
39435;BME280;30098;51.880;-0.518;2022-08-01T11:31:42;100971.06;;;24.60;41.96
39435;BME280;30098;51.880;-0.518;2022-08-01T11:34:07;100962.00;;;24.60;42.37
39435;BME280;30098;51.880;-0.518;2022-08-01T11:36:34;100966.03;;;24.62;42.64
39435;BME280;30098;51.880;-0.518;2022-08-01T11:41:29;100975.72;;;24.68;42.27
39435;BME280;30098;51.880;-0.518;2022-08-01T11:47:00;100957.28;;;24.60;42.37
39435;BME280;30098;51.880;-0.518;2022-08-01T11:52:11;100959.13;;;24.77;42.38
39435;BME280;30098;51.880;-0.518;2022-08-01T11:57:05;100966.03;;;24.83;42.09
39435;BME280;30098;51.880;-0.518;2022-08-01T11:59:48;100950.75;;;24.86;42.13
39435;BME280;30098;51.880;-0.518;2022-08-01T12:04:59;100952.97;;;24.93;42.03
39435;BME280;30098;51.880;-0.518;2022-08-01T12:07:27;100952.31;;;24.96;42.22
39435;BME280;30098;51.880;-0.518;2022-08-01T12:12:22;100944.19;;;24.99;42.57
39435;BME280;30098;51.880;-0.518;2022-08-01T12:14:56;100932.34;;;24.99;42.12
39435;BME280;30098;51.880;-0.518;2022-08-01T12:17:58;100936.47;;;25.05;42.29
39435;BME280;30098;51.880;-0.518;2022-08-01T12:20:29;100940.50;;;25.08;41.97
39435;BME280;30098;51.880;-0.518;2022-08-01T12:22:56;100937.44;;;25.09;42.01
39435;BME280;30098;51.880;-0.518;2022-08-01T12:25:22;100938.69;;;25.12;41.98
39435;BME280;30098;51.880;-0.518;2022-08-01T12:27:49;100929.75;;;25.15;41.87
39435;BME280;30098;51.880;-0.518;2022-08-01T12:30:21;100924.25;;;25.15;41.71
39435;BME280;30098;51.880;-0.518;2022-08-01T12:32:48;100928.72;;;25.19;41.72
39435;BME280;30098;51.880;-0.518;2022-08-01T12:35:17;100927.25;;;25.22;41.65
39435;BME280;30098;51.880;-0.518;2022-08-01T12:37:47;100907.69;;;25.15;41.10
39435;BME280;30098;51.880;-0.518;2022-08-01T12:42:52;100918.03;;;25.30;41.49
39435;BME280;30098;51.880;-0.518;2022-08-01T12:45:25;100913.47;;;25.34;42.10
39435;BME280;30098;51.880;-0.518;2022-08-01T12:47:55;100901.75;;;25.37;41.91
39435;BME280;30098;51.880;-0.518;2022-08-01T12:50:24;100901.09;;;25.41;41.42
39435;BME280;30098;51.880;-0.518;2022-08-01T12:52:51;100907.53;;;25.45;41.67
39435;BME280;30098;51.880;-0.518;2022-08-01T12:55:21;100888.31;;;25.36;41.94
39435;BME280;30098;51.880;-0.518;2022-08-01T12:57:49;100898.56;;;25.48;41.60
39435;BME280;30098;51.880;-0.518;2022-08-01T13:00:22;100895.47;;;25.49;41.39
39435;BME280;30098;51.880;-0.518;2022-08-01T13:02:59;100888.81;;;25.50;41.49
39435;BME280;30098;51.880;-0.518;2022-08-01T13:05:25;100886.88;;;25.51;41.86
39435;BME280;30098;51.880;-0.518;2022-08-01T13:07:50;100823.16;;;25.07;41.39
39435;BME280;30098;51.880;-0.518;2022-08-01T13:10:28;100891.56;;;25.50;41.10
39435;BME280;30098;51.880;-0.518;2022-08-01T13:12:56;100892.38;;;25.51;41.30
39435;BME280;30098;51.880;-0.518;2022-08-01T13:15:25;100887.66;;;25.51;41.29
39435;BME280;30098;51.880;-0.518;2022-08-01T13:17:52;100885.56;;;25.48;40.88
39435;BME280;30098;51.880;-0.518;2022-08-01T13:22:48;100830.63;;;25.18;41.29